createdAt,value
2019-06-07T00:01:55.007Z,0.20
2019-06-07T00:04:25.313Z,0.20
2019-06-07T00:06:55.745Z,0.20
2019-06-07T00:09:25.959Z,0.20
2019-06-07T00:11:56.178Z,0.20
2019-06-07T00:14:27.911Z,0.10
2019-06-07T00:16:58.208Z,0.23
2019-06-07T00:19:28.368Z,0.10
2019-06-07T00:22:22.567Z,0.10
2019-06-07T00:24:30.556Z,0.20
2019-06-07T00:27:00.794Z,0.20
2019-06-07T00:29:31.029Z,0.10
2019-06-07T00:32:01.284Z,0.15
2019-06-07T00:34:31.471Z,0.10
2019-06-07T00:37:02.664Z,0.65
2019-06-07T00:39:32.888Z,0.20
2019-06-07T00:42:03.207Z,0.10
2019-06-07T00:44:33.388Z,0.20
2019-06-07T00:47:04.087Z,0.10
2019-06-07T00:49:41.144Z,0.10
2019-06-07T00:52:07.304Z,0.10
2019-06-07T00:54:37.613Z,0.10
2019-06-07T00:57:07.918Z,0.10
2019-06-07T00:59:38.120Z,0.10
2019-06-07T01:02:08.312Z,0.15
2019-06-07T01:04:38.515Z,0.10
2019-06-07T01:07:08.735Z,0.10
2019-06-07T01:09:38.956Z,0.10
2019-06-07T01:12:09.127Z,0.10
2019-06-07T01:14:39.826Z,0.10
2019-06-07T01:17:29.124Z,0.10
2019-06-07T01:19:48.362Z,0.10
2019-06-07T01:22:20.633Z,0.10
2019-06-07T01:24:50.420Z,0.10
2019-06-07T01:27:22.689Z,0.10
2019-06-07T01:29:52.468Z,0.10
2019-06-07T01:32:24.617Z,0.10
2019-06-07T01:34:55.681Z,0.10
2019-06-07T01:37:27.872Z,0.10
2019-06-07T01:39:57.866Z,0.10
2019-06-07T01:42:29.461Z,0.10
2019-06-07T01:44:59.946Z,0.10
2019-06-07T01:47:32.218Z,0.10
2019-06-07T01:50:02.266Z,0.10
2019-06-07T01:52:32.480Z,0.10
2019-06-07T01:55:02.687Z,0.10
2019-06-07T01:57:45.574Z,0.10
2019-06-07T02:00:07.844Z,0.10
2019-06-07T02:02:38.084Z,0.10
2019-06-07T02:05:08.567Z,0.10
2019-06-07T02:07:38.775Z,0.10
2019-06-07T02:10:10.390Z,0.10
2019-06-07T02:12:43.441Z,0.10
2019-06-07T02:15:12.738Z,0.10
2019-06-07T02:17:42.985Z,0.00
2019-06-07T02:20:13.313Z,0.10
2019-06-07T02:22:43.510Z,0.10
2019-06-07T02:25:37.245Z,0.10
2019-06-07T02:27:46.475Z,0.10
2019-06-07T02:30:40.317Z,0.10
2019-06-07T02:32:49.831Z,0.10
2019-06-07T02:35:25.580Z,0.10
2019-06-07T02:37:53.716Z,0.10
2019-06-07T02:40:27.094Z,0.10
2019-06-07T02:42:56.307Z,0.10
2019-06-07T02:45:29.910Z,0.10
2019-06-07T02:48:01.158Z,0.10
2019-06-07T02:50:36.462Z,0.10
2019-06-07T02:53:03.903Z,0.10
2019-06-07T02:56:26.301Z,0.10
2019-06-07T02:58:08.093Z,0.10
2019-06-07T03:01:07.600Z,0.10
2019-06-07T03:03:22.368Z,0.10
2019-06-07T03:06:03.345Z,0.15
2019-06-07T03:08:36.589Z,0.30
2019-06-07T03:11:07.771Z,0.10
2019-06-07T03:13:42.308Z,0.10
2019-06-07T03:16:14.343Z,0.20
2019-06-07T03:19:05.962Z,0.10
2019-06-07T03:21:44.150Z,0.10
2019-06-07T03:24:14.316Z,0.10
2019-06-07T03:27:32.244Z,0.10
2019-06-07T03:29:16.829Z,0.10
2019-06-07T03:31:48.300Z,0.10
2019-06-07T03:34:23.249Z,0.20
2019-06-07T03:36:53.473Z,0.20
2019-06-07T03:39:25.166Z,0.20
2019-06-07T03:42:05.583Z,0.13
2019-06-07T03:44:28.574Z,0.28
2019-06-07T03:46:59.621Z,0.20
2019-06-07T03:49:37.517Z,0.20
2019-06-07T03:52:10.186Z,0.10
2019-06-07T03:54:40.493Z,0.20
2019-06-07T03:57:10.713Z,0.20
2019-06-07T03:59:43.097Z,0.20
2019-06-07T04:02:20.023Z,0.13
2019-06-07T04:04:50.198Z,0.40
2019-06-07T04:07:21.708Z,0.20
2019-06-07T04:09:51.963Z,0.20
2019-06-07T04:12:22.121Z,0.10
2019-06-07T04:14:52.322Z,0.20
2019-06-07T04:17:44.573Z,0.20
2019-06-07T04:20:09.310Z,0.60
2019-06-07T04:22:42.435Z,0.45
2019-06-07T04:25:13.441Z,0.30
2019-06-07T04:27:43.623Z,0.60
2019-06-07T04:30:15.646Z,0.50
2019-06-07T04:32:47.957Z,0.55
2019-06-07T04:35:18.513Z,0.55
2019-06-07T04:37:49.142Z,0.78
2019-06-07T04:40:21.453Z,0.37
2019-06-07T04:42:54.058Z,0.30
2019-06-07T04:45:39.733Z,0.50
2019-06-07T04:48:06.850Z,1.02
2019-06-07T04:50:40.332Z,0.80
2019-06-07T04:53:09.688Z,1.50
2019-06-07T04:55:51.080Z,0.85
2019-06-07T04:58:23.982Z,0.35
2019-06-07T05:01:02.569Z,0.33
2019-06-07T05:03:26.574Z,0.70
2019-06-07T05:05:56.778Z,0.98
2019-06-07T05:08:29.822Z,0.90
2019-06-07T05:10:58.942Z,0.30
2019-06-07T05:13:31.489Z,0.60
2019-06-07T05:16:01.099Z,0.78
2019-06-07T05:18:33.676Z,0.47
2019-06-07T05:21:06.292Z,0.30
2019-06-07T05:26:08.374Z,0.20
2019-06-07T05:28:42.294Z,0.33
2019-06-07T05:31:11.430Z,0.20
2019-06-07T05:33:43.578Z,0.35
2019-06-07T05:36:15.052Z,0.30
2019-06-07T05:38:45.378Z,0.70
2019-06-07T05:41:16.908Z,0.30
2019-06-07T05:44:00.254Z,0.40
2019-06-07T05:46:19.068Z,0.72
2019-06-07T05:48:49.256Z,0.30
2019-06-07T05:51:19.489Z,0.20
2019-06-07T05:53:49.766Z,0.20
2019-06-07T05:56:19.976Z,0.23
2019-06-07T05:58:50.223Z,0.20
2019-06-07T06:01:42.975Z,0.20
2019-06-07T06:03:52.329Z,0.30
2019-06-07T06:06:22.626Z,0.20
2019-06-07T06:09:12.947Z,0.20
2019-06-07T06:11:43.225Z,0.30
2019-06-07T06:14:07.299Z,0.30
2019-06-07T06:16:32.462Z,0.30
2019-06-07T06:19:03.668Z,0.10
2019-06-07T06:21:36.194Z,0.20
2019-06-07T06:24:06.419Z,0.20
2019-06-07T06:26:40.789Z,0.47
2019-06-07T06:29:10.193Z,0.00
2019-06-07T06:31:49.342Z,0.00
2019-06-07T06:34:12.809Z,0.00
2019-06-07T06:36:45.584Z,0.00
2019-06-07T06:39:15.088Z,0.10
2019-06-07T06:41:54.455Z,0.00
2019-06-07T06:44:17.370Z,0.00
2019-06-07T06:46:57.069Z,0.10
2019-06-07T06:49:20.037Z,0.00
2019-06-07T06:51:53.408Z,0.10
2019-06-07T06:54:39.504Z,0.10
2019-06-07T06:57:17.158Z,0.10
2019-06-07T06:59:38.604Z,0.10
2019-06-07T07:01:58.172Z,0.10
2019-06-07T07:04:28.466Z,0.10
2019-06-07T07:06:59.128Z,0.10
2019-06-07T07:09:29.734Z,0.10
2019-06-07T07:12:11.109Z,0.10
2019-06-07T07:14:31.894Z,0.10
2019-06-07T07:17:02.163Z,0.10
2019-06-07T07:19:32.329Z,0.08
2019-06-07T07:22:02.531Z,0.10
2019-06-07T07:24:32.727Z,0.10
2019-06-07T07:27:02.967Z,0.00
2019-06-07T07:29:33.202Z,0.03
2019-06-07T07:32:03.422Z,0.10
2019-06-07T07:34:36.889Z,0.10
2019-06-07T07:37:06.493Z,0.10
2019-06-07T07:39:36.693Z,0.10
2019-06-07T07:42:20.768Z,0.30
2019-06-07T07:44:39.921Z,0.00
2019-06-07T07:47:10.243Z,0.10
2019-06-07T07:49:40.522Z,0.10
2019-06-07T07:52:10.763Z,0.10
2019-06-07T07:54:41.057Z,0.10
2019-06-07T07:57:11.261Z,0.10
2019-06-07T07:59:54.038Z,0.10
2019-06-07T08:02:13.381Z,0.10
2019-06-07T08:05:13.659Z,0.10
2019-06-07T08:07:15.597Z,0.10
2019-06-07T08:09:47.430Z,0.10
2019-06-07T08:12:17.781Z,0.10
2019-06-07T08:14:50.261Z,0.10
2019-06-07T08:17:20.139Z,0.10
2019-06-07T08:19:52.199Z,0.10
2019-06-07T08:22:22.893Z,0.10
2019-06-07T08:24:55.298Z,0.10
2019-06-07T08:27:26.943Z,0.20
2019-06-07T08:30:15.751Z,0.10
2019-06-07T08:32:29.217Z,0.10
2019-06-07T08:35:03.336Z,0.10
2019-06-07T08:38:14.313Z,0.10
2019-06-07T08:40:04.473Z,0.10
2019-06-07T08:42:48.442Z,0.10
2019-06-07T08:45:11.459Z,0.10
2019-06-07T08:48:07.464Z,0.10
2019-06-07T08:50:31.391Z,0.10
2019-06-07T08:53:11.502Z,0.20
2019-06-07T08:55:33.627Z,0.00
2019-06-07T08:58:08.456Z,0.00
2019-06-07T09:00:47.084Z,0.00
2019-06-07T09:03:07.844Z,0.00
2019-06-07T09:05:38.119Z,0.00
2019-06-07T09:08:28.258Z,0.03
2019-06-07T09:10:40.288Z,0.00
2019-06-07T09:13:11.875Z,0.10
2019-06-07T09:15:42.323Z,0.00
2019-06-07T09:20:48.916Z,0.00
2019-06-07T09:23:22.623Z,0.00
2019-06-07T09:26:02.578Z,1.00
2019-06-07T09:28:25.337Z,0.00
2019-06-07T09:30:57.877Z,0.00
2019-06-07T09:33:28.718Z,0.10
2019-06-07T09:36:01.586Z,0.00
2019-06-07T09:38:30.924Z,0.03
2019-06-07T09:41:04.490Z,0.00
2019-06-07T09:46:12.986Z,0.00
2019-06-07T09:51:19.742Z,0.00
2019-06-07T09:53:47.779Z,0.10
2019-06-07T09:56:18.402Z,0.00
2019-06-07T09:58:52.513Z,0.00
2019-06-07T10:01:20.679Z,0.00
2019-06-07T10:03:51.573Z,0.10
2019-06-07T10:06:21.861Z,0.00
2019-06-07T10:11:24.308Z,0.00
2019-06-07T10:13:54.532Z,0.00
2019-06-07T10:16:24.804Z,0.00
2019-06-07T10:18:55.126Z,0.00
2019-06-07T10:21:25.452Z,0.20
2019-06-07T10:23:55.715Z,0.10
2019-06-07T10:26:25.942Z,0.00
2019-06-07T10:28:56.183Z,0.00
2019-06-07T10:31:26.427Z,0.00
2019-06-07T10:33:56.749Z,0.00
2019-06-07T10:36:26.999Z,0.00
2019-06-07T10:38:57.265Z,0.10
2019-06-07T10:41:27.544Z,0.03
2019-06-07T10:43:57.829Z,0.00
2019-06-07T10:46:28.070Z,0.00
2019-06-07T10:48:58.437Z,0.00
2019-06-07T10:51:28.639Z,0.00
2019-06-07T10:53:58.830Z,0.00
2019-06-07T10:56:29.060Z,0.00
2019-06-07T10:58:59.263Z,0.00
2019-06-07T11:01:29.460Z,0.00
2019-06-07T11:03:59.800Z,0.00
2019-06-07T11:06:31.154Z,0.00
2019-06-07T11:09:01.348Z,0.00
2019-06-07T11:11:33.064Z,0.00
2019-06-07T11:14:04.357Z,0.00
2019-06-07T11:16:34.650Z,0.00
2019-06-07T11:19:06.054Z,0.00
2019-06-07T11:21:36.359Z,0.00
2019-06-07T11:24:06.593Z,0.00
2019-06-07T11:26:36.848Z,0.00
2019-06-07T11:29:08.840Z,0.00
2019-06-07T11:31:40.280Z,0.00
2019-06-07T11:34:10.553Z,0.10
2019-06-07T11:36:40.717Z,0.00
2019-06-07T11:39:11.204Z,0.00
2019-06-07T11:41:41.396Z,0.00
2019-06-07T11:44:12.874Z,0.00
2019-06-07T11:46:43.218Z,0.00
2019-06-07T11:49:19.906Z,0.00
2019-06-07T11:51:45.522Z,0.05
2019-06-07T11:54:16.202Z,0.00
2019-06-07T11:56:46.569Z,0.00
2019-06-07T11:59:17.863Z,0.00
2019-06-07T12:01:48.069Z,0.00
2019-06-07T12:04:32.519Z,0.00
2019-06-07T12:06:50.281Z,0.00
2019-06-07T12:09:20.473Z,0.00
2019-06-07T12:11:52.217Z,0.10
2019-06-07T12:14:24.432Z,0.00
2019-06-07T12:16:54.423Z,0.00
2019-06-07T12:19:29.112Z,0.10
2019-06-07T12:22:06.101Z,0.03
2019-06-07T12:24:39.285Z,0.00
2019-06-07T12:27:08.269Z,0.00
2019-06-07T12:29:38.495Z,0.10
2019-06-07T12:32:08.764Z,0.10
2019-06-07T12:34:39.109Z,0.00
2019-06-07T12:37:09.497Z,0.00
2019-06-07T12:39:39.713Z,0.10
2019-06-07T12:42:12.410Z,0.00
2019-06-07T12:44:43.591Z,0.10
2019-06-07T12:47:15.027Z,0.10
2019-06-07T12:49:45.314Z,0.10
2019-06-07T12:52:17.712Z,0.00
2019-06-07T12:54:48.286Z,0.00
2019-06-07T12:57:20.047Z,0.10
2019-06-07T12:59:53.717Z,0.00
2019-06-07T13:02:25.516Z,0.10
2019-06-07T13:04:56.062Z,0.05
2019-06-07T13:07:26.355Z,0.08
2019-06-07T13:09:56.626Z,0.10
2019-06-07T13:12:28.194Z,0.10
2019-06-07T13:14:58.483Z,0.33
2019-06-07T13:17:28.740Z,0.10
2019-06-07T13:19:58.914Z,0.00
2019-06-07T13:22:29.242Z,0.10
2019-06-07T13:24:59.720Z,0.10
2019-06-07T13:27:33.374Z,0.10
2019-06-07T13:30:09.818Z,0.10
2019-06-07T13:32:37.834Z,0.10
2019-06-07T13:35:10.997Z,0.00
2019-06-07T13:37:41.243Z,0.10
2019-06-07T13:40:12.103Z,0.10
2019-06-07T13:42:42.348Z,0.10
2019-06-07T13:45:18.000Z,0.10
2019-06-07T13:47:50.885Z,0.10
2019-06-07T13:50:23.910Z,0.05
2019-06-07T13:52:54.174Z,0.10
2019-06-07T13:55:25.803Z,0.10
2019-06-07T13:57:56.015Z,0.10
2019-06-07T14:00:26.655Z,0.10
2019-06-07T14:02:57.217Z,0.10
2019-06-07T14:05:36.307Z,0.10
2019-06-07T14:08:09.959Z,0.10
2019-06-07T14:10:44.008Z,0.10
2019-06-07T14:13:14.313Z,0.10
2019-06-07T14:15:44.948Z,0.10
2019-06-07T14:18:26.499Z,0.10
2019-06-07T14:20:58.977Z,0.10
2019-06-07T14:23:45.757Z,0.10
2019-06-07T14:26:01.406Z,0.30
2019-06-07T14:28:34.223Z,0.10
2019-06-07T14:31:05.627Z,0.10
2019-06-07T14:33:40.990Z,0.10
2019-06-07T14:36:11.172Z,0.20
2019-06-07T14:38:41.380Z,0.10
2019-06-07T14:41:11.834Z,0.10
2019-06-07T14:43:42.246Z,0.10
2019-06-07T14:46:12.633Z,0.10
2019-06-07T14:48:42.854Z,0.10
2019-06-07T14:51:13.085Z,0.13
2019-06-07T14:53:43.298Z,0.10
2019-06-07T14:56:13.666Z,0.10
2019-06-07T14:58:43.999Z,0.10
2019-06-07T15:01:14.375Z,0.10
2019-06-07T15:03:44.565Z,0.10
2019-06-07T15:06:15.963Z,0.10
2019-06-07T15:08:46.148Z,0.10
2019-06-07T15:11:16.436Z,0.10
2019-06-07T15:13:47.757Z,0.10
2019-06-07T15:16:23.108Z,0.10
2019-06-07T15:18:53.362Z,0.10
2019-06-07T15:21:24.677Z,0.10
2019-06-07T15:23:57.568Z,0.10
2019-06-07T15:26:28.352Z,0.10
2019-06-07T15:28:58.711Z,0.50
2019-06-07T15:31:32.116Z,0.25
2019-06-07T15:34:02.388Z,0.20
2019-06-07T15:36:34.422Z,0.20
2019-06-07T15:39:07.210Z,0.30
2019-06-07T15:41:39.787Z,0.20
2019-06-07T15:44:13.855Z,0.28
2019-06-07T15:46:44.095Z,0.33
2019-06-07T15:49:14.334Z,0.30
2019-06-07T15:51:45.830Z,0.30
2019-06-07T15:54:16.024Z,0.30
2019-06-07T15:56:46.287Z,0.23
2019-06-07T15:59:16.532Z,0.20
2019-06-07T16:01:48.768Z,0.65
2019-06-07T16:04:18.950Z,0.20
2019-06-07T16:06:49.155Z,0.20
2019-06-07T16:09:19.374Z,0.20
2019-06-07T16:11:56.352Z,0.20
2019-06-07T16:14:29.560Z,0.60
2019-06-07T16:17:05.255Z,0.20
2019-06-07T16:19:44.457Z,0.57
2019-06-07T16:22:14.432Z,0.40
2019-06-07T16:24:47.529Z,0.20
2019-06-07T16:27:18.277Z,0.30
2019-06-07T16:29:48.892Z,0.30
2019-06-07T16:32:25.049Z,0.20
2019-06-07T16:34:57.341Z,0.37
2019-06-07T16:37:27.785Z,0.40
2019-06-07T16:40:00.011Z,0.20
2019-06-07T16:42:30.249Z,0.30
2019-06-07T16:45:08.700Z,0.20
2019-06-07T16:47:42.315Z,0.30
2019-06-07T16:50:13.670Z,0.60
2019-06-07T16:52:46.459Z,0.57
2019-06-07T16:55:16.356Z,0.40
2019-06-07T16:57:46.552Z,0.35
2019-06-07T17:00:17.387Z,0.75
2019-06-07T17:02:48.861Z,0.62
2019-06-07T17:05:24.763Z,0.55
2019-06-07T17:07:59.256Z,0.65
2019-06-07T17:10:30.518Z,0.53
2019-06-07T17:13:00.922Z,0.78
2019-06-07T17:15:31.121Z,0.85
2019-06-07T17:18:06.990Z,0.70
2019-06-07T17:20:37.187Z,0.78
2019-06-07T17:23:09.556Z,0.37
2019-06-07T17:25:43.514Z,1.20
2019-06-07T17:28:14.859Z,1.07
2019-06-07T17:30:46.115Z,0.80
2019-06-07T17:33:19.323Z,0.50
2019-06-07T17:35:50.592Z,0.88
2019-06-07T17:38:21.203Z,0.80
2019-06-07T17:40:51.548Z,1.20
2019-06-07T17:43:21.827Z,0.78
2019-06-07T17:45:56.779Z,0.85
2019-06-07T17:48:37.745Z,0.85
2019-06-07T17:51:08.388Z,0.93
2019-06-07T17:53:38.615Z,0.98
2019-06-07T17:56:08.773Z,1.70
2019-06-07T17:58:39.032Z,1.52
2019-06-07T18:01:10.093Z,1.80
2019-06-07T18:03:40.381Z,2.45
2019-06-07T18:06:16.612Z,1.20
2019-06-07T18:08:51.667Z,1.85
2019-06-07T18:11:22.929Z,1.57
2019-06-07T18:14:10.156Z,1.57
2019-06-07T18:16:28.714Z,1.12
2019-06-07T18:19:01.048Z,1.30
2019-06-07T18:21:31.544Z,1.82
2019-06-07T18:24:04.596Z,1.52
2019-06-07T18:26:39.005Z,0.88
2019-06-07T18:29:12.504Z,1.75
2019-06-07T18:31:42.688Z,1.72
2019-06-07T18:34:13.033Z,1.85
2019-06-07T18:36:43.220Z,2.30
2019-06-07T18:39:13.194Z,2.67
2019-06-07T18:41:43.391Z,1.75
2019-06-07T18:44:21.557Z,2.70
2019-06-07T18:46:50.142Z,3.65
2019-06-07T18:49:23.951Z,3.52
2019-06-07T18:52:20.921Z,3.42
2019-06-07T18:54:53.114Z,2.92
2019-06-07T18:57:28.326Z,3.62
2019-06-07T18:59:58.944Z,3.67
2019-06-07T19:02:29.712Z,3.30
2019-06-07T19:05:01.729Z,3.52
2019-06-07T19:07:32.007Z,2.67
2019-06-07T19:10:06.405Z,3.12
2019-06-07T19:12:36.597Z,3.35
2019-06-07T19:15:08.115Z,2.50
2019-06-07T19:17:38.581Z,2.92
2019-06-07T19:20:09.173Z,3.15
2019-06-07T19:22:41.398Z,2.40
2019-06-07T19:25:12.214Z,2.52
2019-06-07T19:27:42.654Z,3.17
2019-06-07T19:30:15.566Z,3.15
2019-06-07T19:32:49.760Z,3.50
2019-06-07T19:35:20.274Z,2.80
2019-06-07T19:37:51.778Z,3.58
2019-06-07T19:40:22.152Z,2.92
2019-06-07T19:42:52.293Z,3.27
2019-06-07T19:45:31.523Z,3.10
2019-06-07T19:47:58.705Z,3.05
2019-06-07T19:50:29.008Z,3.10
2019-06-07T19:52:59.600Z,4.03
2019-06-07T19:55:29.938Z,3.35
2019-06-07T19:58:01.787Z,3.47
2019-06-07T20:00:32.171Z,3.58
2019-06-07T20:03:05.199Z,4.45
2019-06-07T20:05:38.234Z,5.70
2019-06-07T20:08:08.568Z,8.38
2019-06-07T20:10:38.973Z,7.00
2019-06-07T20:13:09.188Z,8.30
2019-06-07T20:15:39.618Z,5.97
2019-06-07T20:18:12.520Z,0.82
2019-06-07T20:20:44.716Z,0.23
2019-06-07T20:23:15.113Z,0.20
2019-06-07T20:25:45.340Z,0.20
2019-06-07T20:28:15.567Z,0.90
2019-06-07T20:30:47.936Z,0.20
2019-06-07T20:33:28.673Z,0.80
2019-06-07T20:35:50.123Z,0.20
2019-06-07T20:38:20.363Z,0.10
2019-06-07T20:40:50.662Z,0.10
2019-06-07T20:43:21.136Z,0.10
2019-06-07T20:45:51.423Z,0.10
2019-06-07T20:48:26.575Z,0.00
2019-06-07T20:51:00.613Z,0.00
2019-06-07T20:53:31.869Z,0.00
2019-06-07T20:56:04.597Z,0.10
2019-06-07T20:58:37.166Z,0.05
2019-06-07T21:01:09.048Z,0.00
2019-06-07T21:03:41.413Z,0.00
2019-06-07T21:06:11.811Z,0.00
2019-06-07T21:08:42.528Z,0.00
2019-06-07T21:11:12.848Z,0.00
2019-06-07T21:13:43.159Z,0.00
2019-06-07T21:16:13.341Z,0.00
2019-06-07T21:18:43.526Z,0.00
2019-06-07T21:21:13.887Z,0.00
2019-06-07T21:23:44.233Z,0.00
2019-06-07T21:26:14.439Z,0.00
2019-06-07T21:28:44.848Z,0.00
2019-06-07T21:31:16.753Z,0.00
2019-06-07T21:33:47.359Z,0.00
2019-06-07T21:36:17.880Z,0.00
2019-06-07T21:38:48.746Z,0.00
2019-06-07T21:41:22.025Z,0.00
2019-06-07T21:43:52.246Z,0.00
2019-06-07T21:46:23.547Z,0.00
2019-06-07T21:48:53.716Z,0.00
2019-06-07T21:51:24.213Z,0.00
2019-06-07T21:53:55.489Z,0.00
2019-06-07T21:56:25.715Z,0.00
2019-06-07T21:58:55.933Z,0.00
2019-06-07T22:01:30.101Z,0.00
2019-06-07T22:04:00.329Z,0.00
2019-06-07T22:06:30.573Z,0.00
2019-06-07T22:09:03.827Z,0.00
2019-06-07T22:11:34.946Z,0.10
2019-06-07T22:14:06.247Z,0.00
2019-06-07T22:16:36.721Z,0.00
2019-06-07T22:19:06.986Z,0.00
2019-06-07T22:21:37.304Z,0.00
2019-06-07T22:24:08.809Z,0.00
2019-06-07T22:26:39.235Z,0.00
2019-06-07T22:29:10.300Z,0.00
2019-06-07T22:31:41.100Z,0.00
2019-06-07T22:34:12.712Z,0.00
2019-06-07T22:36:43.155Z,0.00
2019-06-07T22:39:13.968Z,0.00
2019-06-07T22:41:44.624Z,0.00
2019-06-07T22:44:14.968Z,0.00
2019-06-07T22:46:50.059Z,0.00
2019-06-07T22:49:20.400Z,0.00
2019-06-07T22:51:50.901Z,0.00
2019-06-07T22:54:21.179Z,0.00
2019-06-07T22:56:56.454Z,0.00
2019-06-07T22:59:26.635Z,0.00
2019-06-07T23:01:56.822Z,0.00
2019-06-07T23:04:27.000Z,0.00
2019-06-07T23:06:57.225Z,0.00
2019-06-07T23:09:27.955Z,0.00
2019-06-07T23:11:59.696Z,0.00
2019-06-07T23:14:29.890Z,0.00
2019-06-07T23:17:00.206Z,0.00
2019-06-07T23:19:30.421Z,0.00
2019-06-07T23:22:00.772Z,0.00
2019-06-07T23:24:30.957Z,0.00
2019-06-07T23:27:02.266Z,0.00
2019-06-07T23:29:32.521Z,0.00
2019-06-07T23:32:02.679Z,0.00
2019-06-07T23:34:33.423Z,0.00
2019-06-07T23:37:03.615Z,0.00
2019-06-07T23:39:33.838Z,0.00
2019-06-07T23:42:03.987Z,0.00
2019-06-07T23:44:34.583Z,0.00
2019-06-07T23:47:11.296Z,0.00
2019-06-07T23:49:36.620Z,0.00
2019-06-07T23:52:06.884Z,0.00
2019-06-07T23:54:37.106Z,0.00
2019-06-07T23:57:07.224Z,0.10
2019-06-07T23:59:56.464Z,0.00
